createdAt,value
2019-06-10T00:02:04.170Z,98412.41
2019-06-10T00:04:15.243Z,98418.49
2019-06-10T00:06:26.187Z,98414.21
2019-06-10T00:08:37.019Z,98425.45
2019-06-10T00:10:47.865Z,98436.30
2019-06-10T00:13:01.015Z,98435.95
2019-06-10T00:15:11.828Z,98434.06
2019-06-10T00:17:22.693Z,98422.75
2019-06-10T00:19:33.498Z,98416.50
2019-06-10T00:21:44.445Z,98409.95
2019-06-10T00:23:55.265Z,98412.23
2019-06-10T00:26:07.764Z,98412.19
2019-06-10T00:28:18.824Z,98405.28
2019-06-10T00:30:31.305Z,98417.80
2019-06-10T00:32:42.298Z,98436.43
2019-06-10T00:34:53.109Z,98452.91
2019-06-10T00:37:06.326Z,98463.27
2019-06-10T00:39:16.769Z,98464.62
2019-06-10T00:41:27.601Z,98454.86
2019-06-10T00:43:38.428Z,98460.80
2019-06-10T00:45:51.318Z,98460.69
2019-06-10T00:48:13.535Z,98463.17
2019-06-10T00:50:14.920Z,98464.14
2019-06-10T00:52:25.807Z,98465.80
2019-06-10T00:54:37.004Z,98467.35
2019-06-10T00:56:47.872Z,98468.31
2019-06-10T00:59:01.047Z,98459.04
2019-06-10T01:01:14.485Z,98444.36
2019-06-10T01:03:24.298Z,98423.27
2019-06-10T01:05:35.137Z,98391.90
2019-06-10T01:07:46.001Z,98375.42
2019-06-10T01:09:56.843Z,98393.53
2019-06-10T01:12:08.983Z,98426.10
2019-06-10T01:14:21.579Z,98431.83
2019-06-10T01:16:32.775Z,98437.17
2019-06-10T01:18:43.618Z,98438.16
2019-06-10T01:20:54.440Z,98428.30
2019-06-10T01:23:05.271Z,98419.64
2019-06-10T01:25:16.201Z,98409.98
2019-06-10T01:27:27.058Z,98418.78
2019-06-10T01:29:37.900Z,98421.20
2019-06-10T01:31:51.030Z,98419.52
2019-06-10T01:34:01.592Z,98406.40
2019-06-10T01:36:14.915Z,98404.64
2019-06-10T01:38:25.154Z,98410.62
2019-06-10T01:40:35.965Z,98410.76
2019-06-10T01:42:46.799Z,98400.84
2019-06-10T01:44:57.646Z,98386.77
2019-06-10T01:47:08.761Z,98388.31
2019-06-10T01:49:21.335Z,98393.81
2019-06-10T01:51:32.344Z,98397.27
2019-06-10T01:53:43.171Z,98396.19
2019-06-10T01:55:54.009Z,98395.85
2019-06-10T01:58:05.198Z,98398.58
2019-06-10T02:00:23.293Z,98393.97
2019-06-10T02:02:35.013Z,98382.66
2019-06-10T02:04:44.194Z,98370.03
2019-06-10T02:06:55.042Z,98363.00
2019-06-10T02:09:06.565Z,98362.18
2019-06-10T02:11:18.996Z,98363.84
2019-06-10T02:13:32.773Z,98362.42
2019-06-10T02:15:43.508Z,98354.31
2019-06-10T02:17:54.349Z,98362.18
2019-06-10T02:20:05.708Z,98358.73
2019-06-10T02:22:17.940Z,98369.47
2019-06-10T02:24:31.420Z,98382.22
2019-06-10T02:26:42.043Z,98392.36
2019-06-10T02:28:52.859Z,98395.56
2019-06-10T02:31:04.056Z,98394.02
2019-06-10T02:33:18.978Z,98395.47
2019-06-10T02:35:43.023Z,98406.43
2019-06-10T02:37:44.143Z,98400.22
2019-06-10T02:39:54.159Z,98381.63
2019-06-10T02:42:19.049Z,98365.77
2019-06-10T02:44:33.149Z,98375.19
2019-06-10T02:46:43.838Z,98383.63
2019-06-10T02:48:54.985Z,98362.18
2019-06-10T02:51:06.457Z,98359.91
2019-06-10T02:53:19.255Z,98362.08
2019-06-10T02:55:34.189Z,98353.87
2019-06-10T02:57:44.865Z,98339.80
2019-06-10T02:59:55.679Z,98340.63
2019-06-10T03:02:06.522Z,98360.19
2019-06-10T03:04:18.292Z,98380.91
2019-06-10T03:06:38.490Z,98406.43
2019-06-10T03:08:43.691Z,98425.84
2019-06-10T03:10:54.985Z,98426.67
2019-06-10T03:13:05.885Z,98404.53
2019-06-10T03:15:17.884Z,98397.12
2019-06-10T03:17:28.876Z,98376.59
2019-06-10T03:19:46.966Z,98379.80
2019-06-10T03:21:52.543Z,98384.60
2019-06-10T03:24:03.355Z,98391.16
2019-06-10T03:26:15.196Z,98384.98
2019-06-10T03:28:26.330Z,98374.16
2019-06-10T03:30:48.060Z,98367.36
2019-06-10T03:32:50.025Z,98384.60
2019-06-10T03:35:05.015Z,98394.50
2019-06-10T03:37:13.581Z,98385.91
2019-06-10T03:39:26.916Z,98383.88
2019-06-10T03:41:37.271Z,98369.59
2019-06-10T03:43:48.106Z,98349.31
2019-06-10T03:45:58.919Z,98323.34
2019-06-10T03:48:09.762Z,98315.59
2019-06-10T03:50:23.959Z,98319.65
2019-06-10T03:52:33.417Z,98318.68
2019-06-10T03:54:44.231Z,98324.75
2019-06-10T03:56:55.160Z,98326.20
2019-06-10T03:59:06.014Z,98327.03
2019-06-10T04:01:17.402Z,98328.93
2019-06-10T04:03:29.376Z,98329.41
2019-06-10T04:05:42.379Z,98330.13
2019-06-10T04:07:53.052Z,98329.76
2019-06-10T04:10:04.353Z,98322.03
2019-06-10T04:12:15.183Z,98310.47
2019-06-10T04:14:26.796Z,98315.22
2019-06-10T04:16:38.769Z,98312.25
2019-06-10T04:18:50.123Z,98300.58
2019-06-10T04:21:03.945Z,98290.00
2019-06-10T04:23:14.782Z,98285.23
2019-06-10T04:25:29.173Z,98288.94
2019-06-10T04:27:38.361Z,98288.22
2019-06-10T04:29:49.189Z,98283.59
2019-06-10T04:32:00.009Z,98284.28
2019-06-10T04:34:12.505Z,98296.66
2019-06-10T04:36:26.009Z,98309.08
2019-06-10T04:38:36.267Z,98308.98
2019-06-10T04:40:47.182Z,98306.95
2019-06-10T04:42:58.039Z,98306.02
2019-06-10T04:45:09.091Z,98305.68
2019-06-10T04:47:21.289Z,98305.09
2019-06-10T04:49:32.893Z,98294.62
2019-06-10T04:51:43.811Z,98293.06
2019-06-10T04:53:54.636Z,98302.72
2019-06-10T04:56:05.478Z,98303.44
2019-06-10T04:58:16.400Z,98292.48
2019-06-10T05:00:28.790Z,98300.34
2019-06-10T05:02:39.954Z,98307.48
2019-06-10T05:04:53.059Z,98296.41
2019-06-10T05:07:03.522Z,98300.20
2019-06-10T05:09:14.340Z,98302.00
2019-06-10T05:11:26.950Z,98310.20
2019-06-10T05:13:37.899Z,98319.61
2019-06-10T05:15:48.751Z,98314.36
2019-06-10T05:17:59.569Z,98314.36
2019-06-10T05:20:12.572Z,98315.77
2019-06-10T05:22:25.465Z,98319.94
2019-06-10T05:24:36.456Z,98323.35
2019-06-10T05:26:47.285Z,98318.68
2019-06-10T05:28:58.104Z,98321.91
2019-06-10T05:31:08.948Z,98327.72
2019-06-10T05:33:20.792Z,98327.34
2019-06-10T05:35:33.921Z,98330.06
2019-06-10T05:37:44.969Z,98315.97
2019-06-10T05:39:55.812Z,98315.86
2019-06-10T05:42:09.314Z,98323.98
2019-06-10T05:44:22.699Z,98323.36
2019-06-10T05:46:34.882Z,98336.31
2019-06-10T05:48:45.841Z,98341.56
2019-06-10T05:51:02.154Z,98352.05
2019-06-10T05:53:09.520Z,98348.74
2019-06-10T05:55:22.503Z,98350.38
2019-06-10T05:57:35.160Z,98343.66
2019-06-10T05:59:45.940Z,98340.65
2019-06-10T06:01:56.802Z,98341.08
2019-06-10T06:04:07.629Z,98340.00
2019-06-10T06:06:18.487Z,98338.78
2019-06-10T06:08:29.316Z,98329.34
2019-06-10T06:10:42.446Z,98342.92
2019-06-10T06:12:52.889Z,98334.31
2019-06-10T06:15:04.123Z,98338.08
2019-06-10T06:17:16.784Z,98342.67
2019-06-10T06:19:28.204Z,98342.24
2019-06-10T06:21:46.410Z,98337.19
2019-06-10T06:23:52.829Z,98346.00
2019-06-10T06:26:04.199Z,98351.11
2019-06-10T06:28:16.292Z,98357.30
2019-06-10T06:30:28.061Z,98359.67
2019-06-10T06:32:39.015Z,98362.30
2019-06-10T06:34:52.499Z,98361.06
2019-06-10T06:37:02.907Z,98364.06
2019-06-10T06:39:13.728Z,98373.25
2019-06-10T06:41:24.552Z,98385.41
2019-06-10T06:43:40.000Z,98385.33
2019-06-10T06:45:48.132Z,98385.08
2019-06-10T06:47:58.982Z,98380.50
2019-06-10T06:50:13.050Z,98385.41
2019-06-10T06:52:46.558Z,98380.31
2019-06-10T06:54:38.121Z,98393.52
2019-06-10T06:56:49.666Z,98404.59
2019-06-10T06:59:02.530Z,98406.91
2019-06-10T07:01:14.577Z,98401.53
2019-06-10T07:03:25.865Z,98392.72
2019-06-10T07:05:38.959Z,98395.50
2019-06-10T07:07:52.743Z,98402.86
2019-06-10T07:10:07.451Z,98401.81
2019-06-10T07:12:23.009Z,98404.25
2019-06-10T07:14:37.160Z,98400.50
2019-06-10T07:16:46.940Z,98394.87
2019-06-10T07:18:57.784Z,98394.72
2019-06-10T07:21:08.733Z,98388.11
2019-06-10T07:23:19.545Z,98383.61
2019-06-10T07:25:34.145Z,98390.10
2019-06-10T07:27:46.430Z,98396.25
2019-06-10T07:29:56.062Z,98397.30
2019-06-10T07:32:06.895Z,98392.24
2019-06-10T07:34:17.762Z,98389.77
2019-06-10T07:36:28.781Z,98391.64
2019-06-10T07:38:41.852Z,98391.86
2019-06-10T07:40:53.062Z,98388.97
2019-06-10T07:43:04.231Z,98388.67
2019-06-10T07:45:15.270Z,98385.93
2019-06-10T07:47:26.086Z,98387.09
2019-06-10T07:49:37.238Z,98392.24
2019-06-10T07:51:48.313Z,98392.35
2019-06-10T07:53:59.232Z,98396.22
2019-06-10T07:56:12.629Z,98401.70
2019-06-10T07:58:22.797Z,98408.80
2019-06-10T08:00:36.250Z,98408.98
2019-06-10T08:02:46.694Z,98407.48
2019-06-10T08:04:57.669Z,98409.66
2019-06-10T08:07:08.792Z,98408.11
2019-06-10T08:09:19.641Z,98409.97
2019-06-10T08:11:33.085Z,98407.16
2019-06-10T08:13:46.122Z,98407.63
2019-06-10T08:15:56.059Z,98406.45
2019-06-10T08:18:06.915Z,98401.55
2019-06-10T08:20:22.263Z,98398.70
2019-06-10T08:22:37.447Z,98402.77
2019-06-10T08:24:46.120Z,98409.99
2019-06-10T08:26:56.962Z,98400.34
2019-06-10T08:29:07.835Z,98385.81
2019-06-10T08:31:18.678Z,98368.01
2019-06-10T08:33:29.532Z,98364.83
2019-06-10T08:35:49.504Z,98367.88
2019-06-10T08:37:53.302Z,98364.22
2019-06-10T08:40:05.237Z,98364.37
2019-06-10T08:42:16.210Z,98355.16
2019-06-10T08:44:27.183Z,98346.28
2019-06-10T08:46:38.838Z,98339.77
2019-06-10T08:48:52.349Z,98335.20
2019-06-10T08:51:03.494Z,98324.03
2019-06-10T08:53:18.151Z,98318.00
2019-06-10T08:55:27.841Z,98325.77
2019-06-10T08:57:42.442Z,98325.06
2019-06-10T08:59:53.297Z,98331.09
2019-06-10T09:02:04.305Z,98319.69
2019-06-10T09:04:15.197Z,98309.89
2019-06-10T09:06:28.180Z,98312.70
2019-06-10T09:08:40.872Z,98320.55
2019-06-10T09:10:54.915Z,98317.66
2019-06-10T09:13:04.819Z,98302.56
2019-06-10T09:15:16.061Z,98295.69
2019-06-10T09:17:26.928Z,98297.31
2019-06-10T09:19:38.585Z,98292.54
2019-06-10T09:21:53.381Z,98282.00
2019-06-10T09:24:04.048Z,98270.81
2019-06-10T09:26:14.969Z,98258.27
2019-06-10T09:28:25.844Z,98255.00
2019-06-10T09:30:36.800Z,98246.30
2019-06-10T09:32:51.385Z,98235.05
2019-06-10T09:35:03.209Z,98226.22
2019-06-10T09:37:13.301Z,98201.89
2019-06-10T09:39:24.180Z,98185.27
2019-06-10T09:41:40.072Z,98166.48
2019-06-10T09:43:51.719Z,98166.47
2019-06-10T09:46:03.486Z,98158.69
2019-06-10T09:48:22.687Z,98171.77
2019-06-10T09:50:41.236Z,98165.47
2019-06-10T09:52:56.846Z,98151.77
2019-06-10T09:55:05.252Z,98144.34
2019-06-10T09:57:16.152Z,98134.72
2019-06-10T09:59:27.001Z,98124.64
2019-06-10T10:01:37.981Z,98115.42
2019-06-10T10:03:53.904Z,98112.17
2019-06-10T10:06:11.499Z,98118.00
2019-06-10T10:08:16.529Z,98120.14
2019-06-10T10:10:34.300Z,98120.21
